Time;durP1;ratioP1;P1;durP2;ratioP2;P2;SDS_P1;SDS_P2;PMS_P1;PMS_P2;Temp;Humidity;BMP_temperature;BMP_pressure;BME280_temperature;BME280_humidity;BME280_pressure;Samples;Min_cycle;Max_cycle;Signal;HPM_P1;HPM_P2
2022/07/16 00:01:24;;;;;;;0.95;0.50;;;18.80;57.90;;;;;;5055019;28;20396;-65
2022/07/16 00:03:52;;;;;;;0.60;0.40;;;18.80;58.00;;;;;;5045566;28;20060;-70
2022/07/16 00:06:18;;;;;;;0.30;0.30;;;18.70;58.10;;;;;;5056016;28;20387;-70
2022/07/16 00:08:44;;;;;;;0.60;0.60;;;18.70;58.20;;;;;;5043696;28;20029;-70
2022/07/16 00:11:09;;;;;;;0.32;0.32;;;18.70;58.30;;;;;;5059463;28;20040;-71
2022/07/16 00:13:35;;;;;;;0.40;0.30;;;18.70;58.30;;;;;;5047093;28;20147;-64
2022/07/16 00:16:01;;;;;;;0.50;0.43;;;18.80;58.40;;;;;;5046077;28;20052;-65
2022/07/16 00:21:11;;;;;;;0.70;0.40;;;18.90;58.20;;;;;;5051757;28;20071;-65
2022/07/16 00:23:36;;;;;;;0.50;0.50;;;18.90;57.80;;;;;;5049248;28;20503;-64
2022/07/16 00:26:02;;;;;;;0.90;0.60;;;19.00;57.70;;;;;;5047748;28;20127;-64
2022/07/16 00:28:28;;;;;;;1.25;0.50;;;19.10;57.60;;;;;;5042002;28;20033;-64
2022/07/16 00:30:53;;;;;;;0.52;0.52;;;19.10;57.60;;;;;;5048172;28;20104;-65
2022/07/16 00:33:19;;;;;;;0.65;0.47;;;19.20;57.40;;;;;;5043924;28;20511;-64
2022/07/16 00:35:45;;;;;;;0.57;0.47;;;19.30;57.30;;;;;;5042484;28;20049;-64
2022/07/16 00:38:12;;;;;;;0.43;0.43;;;19.40;57.80;;;;;;5064235;28;20040;-65
2022/07/16 00:40:37;;;;;;;0.43;0.43;;;19.50;57.20;;;;;;5048551;28;20037;-64
2022/07/16 00:43:03;;;;;;;0.80;0.80;;;19.50;57.20;;;;;;5045777;28;20060;-64
2022/07/16 00:45:29;;;;;;;1.05;0.50;;;19.60;57.30;;;;;;5049094;28;20045;-69
2022/07/16 00:47:55;;;;;;;0.55;0.32;;;19.60;57.10;;;;;;5050074;28;20105;-69
2022/07/16 00:50:21;;;;;;;0.52;0.52;;;19.60;57.20;;;;;;5046358;28;20029;-69
2022/07/16 00:52:46;;;;;;;0.50;0.50;;;19.60;57.10;;;;;;5036357;28;20025;-69
2022/07/16 00:55:12;;;;;;;0.60;0.60;;;19.70;57.10;;;;;;5052336;28;20017;-70
2022/07/16 00:57:38;;;;;;;0.82;0.70;;;19.70;57.00;;;;;;5055785;28;20025;-69
2022/07/16 01:00:05;;;;;;;0.60;0.60;;;19.80;57.10;;;;;;5049179;28;20025;-70
2022/07/16 01:02:33;;;;;;;0.43;0.43;;;19.80;57.00;;;;;;5048776;28;20437;-70
2022/07/16 01:04:59;;;;;;;1.70;0.60;;;19.80;57.10;;;;;;5045348;28;20417;-70
2022/07/16 01:07:24;;;;;;;0.57;0.57;;;19.80;57.10;;;;;;5062715;28;20032;-70
2022/07/16 01:09:51;;;;;;;0.50;0.50;;;19.80;57.10;;;;;;5045988;28;20049;-70
2022/07/16 01:12:18;;;;;;;0.90;0.70;;;19.90;57.20;;;;;;5048740;28;20029;-70
2022/07/16 01:14:45;;;;;;;0.90;0.63;;;19.90;57.10;;;;;;5050019;28;20055;-70
2022/07/16 01:17:11;;;;;;;0.52;0.50;;;19.80;57.10;;;;;;5049393;28;20028;-70
2022/07/16 01:19:36;;;;;;;0.60;0.60;;;19.80;57.30;;;;;;5049049;28;20246;-69
2022/07/16 01:22:02;;;;;;;0.50;0.45;;;19.80;57.50;;;;;;5040197;28;20045;-70
2022/07/16 01:24:28;;;;;;;0.65;0.63;;;19.80;57.60;;;;;;5059135;28;20037;-70
2022/07/16 01:26:54;;;;;;;0.50;0.50;;;19.80;57.40;;;;;;5047761;28;20037;-70
2022/07/16 01:29:19;;;;;;;0.82;0.82;;;19.80;57.60;;;;;;5046595;28;20040;-70
2022/07/16 01:31:45;;;;;;;0.65;0.65;;;19.80;57.80;;;;;;5047214;28;20450;-70
2022/07/16 01:34:26;;;;;;;0.68;0.60;;;19.80;57.80;;;;;;5047889;28;20029;-70
2022/07/16 01:37:01;;;;;;;0.40;0.40;;;19.80;57.80;;;;;;5041230;28;20037;-70
2022/07/16 01:39:28;;;;;;;2.40;0.80;;;19.80;57.80;;;;;;5048663;28;20036;-70
2022/07/16 01:41:56;;;;;;;4.15;0.77;;;19.80;58.00;;;;;;5040861;28;20037;-70
2022/07/16 01:44:24;;;;;;;0.40;0.40;;;19.80;58.20;;;;;;5043340;28;20504;-70
2022/07/16 01:46:54;;;;;;;1.90;1.15;;;19.80;58.10;;;;;;5046573;28;20029;-70
2022/07/16 01:49:20;;;;;;;0.80;0.57;;;19.90;58.80;;;;;;5049310;28;20069;-70
2022/07/16 01:51:46;;;;;;;0.68;0.50;;;19.90;58.00;;;;;;5051590;28;20086;-70
2022/07/16 01:54:12;;;;;;;0.47;0.47;;;20.00;57.90;;;;;;5055501;28;20519;-70
2022/07/16 01:56:38;;;;;;;4.20;0.88;;;20.00;57.90;;;;;;5046387;28;20024;-70
2022/07/16 01:59:03;;;;;;;0.50;0.50;;;20.00;58.00;;;;;;5048740;28;20036;-70
2022/07/16 02:01:29;;;;;;;0.40;0.40;;;20.00;58.10;;;;;;5048383;28;20052;-70
2022/07/16 02:03:55;;;;;;;1.77;0.57;;;20.00;58.20;;;;;;5048003;28;20037;-70
2022/07/16 02:06:21;;;;;;;0.52;0.50;;;20.00;58.50;;;;;;5049531;28;20047;-64
2022/07/16 02:08:47;;;;;;;0.88;0.80;;;19.90;58.80;;;;;;5048821;28;20105;-65
2022/07/16 02:11:13;;;;;;;1.65;0.65;;;19.90;58.70;;;;;;5047935;28;20507;-64
2022/07/16 02:13:38;;;;;;;0.30;0.30;;;19.90;58.70;;;;;;5048376;28;20476;-64
2022/07/16 02:16:04;;;;;;;0.68;0.60;;;20.00;58.50;;;;;;5046210;28;20084;-64
2022/07/16 02:18:32;;;;;;;0.98;0.50;;;19.90;58.70;;;;;;5047772;28;20045;-69
2022/07/16 02:21:01;;;;;;;0.73;0.70;;;19.90;58.80;;;;;;5037046;28;20052;-70
2022/07/16 02:23:27;;;;;;;3.60;0.70;;;19.90;58.80;;;;;;5048601;28;20041;-70
2022/07/16 02:25:52;;;;;;;6.05;0.85;;;19.90;58.90;;;;;;5048086;28;20424;-70
2022/07/16 02:28:18;;;;;;;1.20;0.60;;;20.00;59.00;;;;;;5046608;28;20025;-64
2022/07/16 02:30:47;;;;;;;4.13;0.73;;;19.90;58.90;;;;;;5047516;28;20056;-64
2022/07/16 02:33:16;;;;;;;0.65;0.65;;;20.00;58.90;;;;;;5046771;28;20416;-69
2022/07/16 02:35:42;;;;;;;1.38;0.50;;;20.00;59.00;;;;;;5061628;28;20742;-70
2022/07/16 02:38:09;;;;;;;0.90;0.77;;;20.00;59.00;;;;;;5047773;28;20021;-70
2022/07/16 02:40:35;;;;;;;0.40;0.40;;;20.00;59.00;;;;;;5032733;28;20558;-70
2022/07/16 02:43:03;;;;;;;0.73;0.55;;;20.10;58.90;;;;;;5047367;28;20108;-70
2022/07/16 02:45:29;;;;;;;0.68;0.68;;;20.00;59.20;;;;;;5043302;28;20482;-70
2022/07/16 02:47:55;;;;;;;1.25;0.88;;;20.00;59.50;;;;;;5048344;28;20087;-70
2022/07/16 02:50:21;;;;;;;0.40;0.40;;;20.00;59.70;;;;;;5055500;28;20028;-64
2022/07/16 02:52:48;;;;;;;0.47;0.47;;;20.00;59.70;;;;;;5049171;28;20094;-65
2022/07/16 02:55:13;;;;;;;1.17;0.68;;;20.00;60.00;;;;;;5048726;28;20376;-64
2022/07/16 02:57:39;;;;;;;0.55;0.55;;;19.90;60.00;;;;;;5062745;28;20040;-69
2022/07/16 03:00:08;;;;;;;0.80;0.80;;;19.90;60.20;;;;;;5048093;28;20180;-70
2022/07/16 03:02:33;;;;;;;0.70;0.70;;;19.90;60.20;;;;;;5046992;28;20053;-70
2022/07/16 03:04:59;;;;;;;0.73;0.63;;;19.90;60.20;;;;;;5048417;28;20099;-69
2022/07/16 03:07:25;;;;;;;0.82;0.47;;;19.90;60.40;;;;;;5052950;28;20041;-70
2022/07/16 03:09:50;;;;;;;0.75;0.70;;;19.90;60.50;;;;;;5049864;28;20033;-69
2022/07/16 03:12:18;;;;;;;0.50;0.50;;;19.90;60.70;;;;;;5055439;28;20682;-70
2022/07/16 03:14:44;;;;;;;0.73;0.63;;;19.80;60.60;;;;;;5052488;28;20027;-64
2022/07/16 03:17:09;;;;;;;2.97;1.08;;;19.80;60.90;;;;;;5049532;28;20029;-69
2022/07/16 03:19:35;;;;;;;1.33;0.80;;;19.80;61.00;;;;;;5050634;28;20039;-70
2022/07/16 03:22:01;;;;;;;0.57;0.55;;;19.80;61.30;;;;;;5054605;28;20116;-69
2022/07/16 03:24:27;;;;;;;2.03;1.23;;;19.70;61.80;;;;;;5051150;28;20037;-70
2022/07/16 03:26:52;;;;;;;1.17;0.82;;;19.70;62.10;;;;;;5051265;28;20033;-70
2022/07/16 03:29:21;;;;;;;0.70;0.68;;;19.70;61.90;;;;;;5050122;28;20461;-71
2022/07/16 03:31:46;;;;;;;1.25;0.95;;;19.70;61.90;;;;;;5050069;28;20083;-69
2022/07/16 03:34:12;;;;;;;0.70;0.70;;;19.70;62.20;;;;;;5051914;28;20032;-69
2022/07/16 03:36:38;;;;;;;1.88;0.77;;;19.70;62.10;;;;;;5066122;28;20124;-64
2022/07/16 03:39:06;;;;;;;0.77;0.77;;;19.70;62.10;;;;;;5051263;28;20087;-69
2022/07/16 03:41:34;;;;;;;1.55;0.82;;;19.80;62.10;;;;;;5064871;28;20060;-64
2022/07/16 03:44:01;;;;;;;1.33;0.93;;;19.80;62.10;;;;;;5050428;28;20094;-64
2022/07/16 03:46:27;;;;;;;6.75;0.80;;;19.80;62.10;;;;;;5050489;28;20416;-64
2022/07/16 03:48:52;;;;;;;1.00;0.90;;;19.80;62.30;;;;;;5050380;28;20037;-64
2022/07/16 03:51:18;;;;;;;1.17;0.77;;;19.80;62.60;;;;;;5049117;28;20036;-63
2022/07/16 03:53:44;;;;;;;3.47;0.75;;;19.80;62.60;;;;;;5048901;28;20127;-64
2022/07/16 03:56:10;;;;;;;1.35;1.00;;;19.70;62.70;;;;;;5052916;28;20029;-64
2022/07/16 03:58:36;;;;;;;2.00;1.10;;;19.70;62.80;;;;;;5050430;28;20035;-64
2022/07/16 04:01:02;;;;;;;1.52;1.00;;;19.70;63.50;;;;;;5050156;28;20538;-64
2022/07/16 04:03:28;;;;;;;0.90;0.80;;;19.70;63.10;;;;;;5053176;28;20738;-64
2022/07/16 04:05:54;;;;;;;0.65;0.63;;;19.70;63.10;;;;;;5058882;28;20039;-64
2022/07/16 04:08:20;;;;;;;1.20;1.10;;;19.60;63.20;;;;;;5059271;28;20033;-64
2022/07/16 04:10:45;;;;;;;1.42;0.60;;;19.60;63.50;;;;;;5064846;28;20033;-64
2022/07/16 04:13:11;;;;;;;1.27;1.08;;;19.60;63.60;;;;;;5048987;28;20032;-65
2022/07/16 04:15:37;;;;;;;1.17;0.63;;;19.60;63.80;;;;;;5064651;28;20033;-65
2022/07/16 04:18:03;;;;;;;0.70;0.60;;;19.60;63.70;;;;;;5048936;28;20021;-64
2022/07/16 04:20:28;;;;;;;0.82;0.60;;;19.60;63.90;;;;;;5046594;28;20039;-64
2022/07/16 04:22:55;;;;;;;1.02;0.95;;;19.60;64.00;;;;;;5044373;28;20082;-63
2022/07/16 04:25:20;;;;;;;1.25;1.15;;;19.60;64.20;;;;;;5043483;28;20033;-62
2022/07/16 04:27:47;;;;;;;2.80;1.00;;;19.60;65.20;;;;;;5052258;28;20037;-64
2022/07/16 04:30:13;;;;;;;1.33;0.85;;;19.50;65.60;;;;;;5045945;28;20372;-63
2022/07/16 04:32:40;;;;;;;0.50;0.50;;;19.40;66.40;;;;;;5042498;28;20029;-63
2022/07/16 04:35:07;;;;;;;4.20;0.80;;;19.30;66.80;;;;;;5033472;28;20026;-63
2022/07/16 04:37:33;;;;;;;0.80;0.70;;;19.30;67.50;;;;;;5035928;28;20029;-63
2022/07/16 04:39:59;;;;;;;1.45;1.08;;;19.20;68.00;;;;;;5040924;28;20036;-63
2022/07/16 04:42:25;;;;;;;3.10;1.63;;;19.10;68.20;;;;;;5036102;28;20037;-67
2022/07/16 04:44:50;;;;;;;1.67;1.25;;;19.10;68.70;;;;;;5043704;28;20036;-63
2022/07/16 04:47:16;;;;;;;1.77;1.10;;;19.10;69.10;;;;;;5046958;28;20047;-67
2022/07/16 04:49:42;;;;;;;2.35;1.17;;;19.00;69.20;;;;;;5038833;28;20034;-63
2022/07/16 04:52:08;;;;;;;1.50;1.23;;;19.00;70.00;;;;;;5033579;28;20103;-68
2022/07/16 04:54:37;;;;;;;0.85;0.65;;;19.00;70.10;;;;;;5039329;28;20473;-63
2022/07/16 04:57:02;;;;;;;0.68;0.68;;;19.00;70.40;;;;;;5038887;28;20116;-68
2022/07/16 04:59:28;;;;;;;3.20;1.52;;;19.10;70.70;;;;;;5038266;28;20194;-63
2022/07/16 05:02:56;;;;;;;1.33;1.23;;;19.10;71.40;;;;;;5040889;28;20044;-68
2022/07/16 05:04:39;;;;;;;2.35;1.25;;;19.10;71.50;;;;;;5031500;28;20037;-63
2022/07/16 05:07:05;;;;;;;1.58;1.48;;;19.10;71.60;;;;;;5040393;28;20032;-63
2022/07/16 05:09:31;;;;;;;1.45;1.35;;;19.10;71.70;;;;;;5031062;28;20409;-68
2022/07/16 05:11:56;;;;;;;1.77;1.20;;;19.20;71.60;;;;;;5033317;28;20059;-64
2022/07/16 05:14:22;;;;;;;0.70;0.70;;;19.20;71.50;;;;;;5052888;28;20484;-63
2022/07/16 05:16:47;;;;;;;0.88;0.82;;;19.20;71.30;;;;;;5040381;28;20025;-63
2022/07/16 05:19:13;;;;;;;2.70;1.00;;;19.20;71.60;;;;;;5046952;28;20108;-64
2022/07/16 05:21:39;;;;;;;2.08;1.30;;;19.30;72.10;;;;;;5036884;28;20060;-64
2022/07/16 05:24:05;;;;;;;1.40;1.08;;;19.30;71.90;;;;;;5041802;28;20032;-63
2022/07/16 05:26:30;;;;;;;1.10;1.00;;;19.40;71.90;;;;;;5037642;28;20042;-64
2022/07/16 05:28:56;;;;;;;8.30;1.02;;;19.40;71.80;;;;;;5038386;28;20043;-63
2022/07/16 05:31:22;;;;;;;1.77;1.08;;;19.50;72.00;;;;;;5042280;28;20120;-67
2022/07/16 05:33:47;;;;;;;0.93;0.90;;;19.50;72.40;;;;;;5046731;28;20032;-67
2022/07/16 05:36:13;;;;;;;0.95;0.82;;;19.60;72.30;;;;;;5048717;28;20113;-67
2022/07/16 05:38:39;;;;;;;1.35;0.57;;;19.60;72.20;;;;;;5048174;28;20072;-68
2022/07/16 05:41:04;;;;;;;1.60;1.13;;;19.60;72.10;;;;;;5046469;28;20095;-67
2022/07/16 05:43:30;;;;;;;0.93;0.93;;;19.60;72.00;;;;;;5042233;28;20825;-68
2022/07/16 05:45:56;;;;;;;2.08;1.38;;;19.60;72.20;;;;;;5045021;28;20025;-68
2022/07/16 05:48:22;;;;;;;0.95;0.95;;;19.60;72.30;;;;;;5048548;28;20759;-67
2022/07/16 05:50:47;;;;;;;2.15;0.93;;;19.70;72.40;;;;;;5049238;28;20032;-63
2022/07/16 05:53:13;;;;;;;0.80;0.57;;;19.70;72.40;;;;;;5048848;28;20037;-68
2022/07/16 05:55:39;;;;;;;0.95;0.85;;;19.70;72.40;;;;;;5060654;28;20021;-63
2022/07/16 05:58:05;;;;;;;1.23;0.90;;;19.80;72.50;;;;;;5056009;28;20438;-64
2022/07/16 06:00:31;;;;;;;1.30;0.90;;;19.80;72.70;;;;;;5048546;28;20106;-63
2022/07/16 06:02:56;;;;;;;5.65;1.20;;;19.90;72.70;;;;;;5038006;28;20057;-63
2022/07/16 06:05:23;;;;;;;1.73;0.90;;;20.00;72.40;;;;;;5049358;28;20114;-68
2022/07/16 06:07:49;;;;;;;0.75;0.60;;;20.00;73.00;;;;;;5041007;28;20033;-68
2022/07/16 06:10:15;;;;;;;0.85;0.65;;;20.10;72.20;;;;;;5044003;28;20068;-67
2022/07/16 06:12:41;;;;;;;0.73;0.55;;;20.10;72.10;;;;;;5038761;28;20025;-67
2022/07/16 06:15:09;;;;;;;1.75;0.88;;;20.00;72.70;;;;;;5041282;28;20299;-67
2022/07/16 06:17:35;;;;;;;0.70;0.70;;;20.00;72.30;;;;;;5046590;28;20507;-67
2022/07/16 06:20:01;;;;;;;0.80;0.70;;;20.00;73.00;;;;;;5049267;28;20037;-67
2022/07/16 06:22:26;;;;;;;1.85;1.00;;;20.00;72.20;;;;;;5061684;28;20094;-63
2022/07/16 06:24:52;;;;;;;1.45;0.80;;;20.10;72.20;;;;;;5038753;28;20043;-68
2022/07/16 06:27:18;;;;;;;0.30;0.30;;;20.20;72.20;;;;;;5040698;28;20033;-68
2022/07/16 06:29:43;;;;;;;0.73;0.35;;;20.30;72.10;;;;;;5037550;28;20055;-68
2022/07/16 06:32:09;;;;;;;6.32;0.82;;;20.40;71.90;;;;;;5043254;28;20036;-68
2022/07/16 06:34:35;;;;;;;0.98;0.70;;;20.40;71.50;;;;;;5042420;28;20053;-68
2022/07/16 06:37:00;;;;;;;0.73;0.50;;;20.40;71.30;;;;;;5044357;28;20113;-68
2022/07/16 06:39:26;;;;;;;0.65;0.50;;;20.40;71.10;;;;;;5041382;28;20866;-68
2022/07/16 06:41:52;;;;;;;1.08;0.55;;;20.50;71.00;;;;;;5040552;28;20099;-68
2022/07/16 06:44:18;;;;;;;0.52;0.40;;;20.40;70.70;;;;;;5044158;28;20045;-68
2022/07/16 06:46:44;;;;;;;0.60;0.50;;;20.50;70.30;;;;;;5037621;28;20055;-68
2022/07/16 06:49:09;;;;;;;0.93;0.60;;;20.40;69.30;;;;;;5047871;28;20033;-68
2022/07/16 06:51:36;;;;;;;1.33;0.55;;;20.40;69.00;;;;;;5043118;28;20037;-68
2022/07/16 06:54:01;;;;;;;0.60;0.60;;;20.40;69.00;;;;;;5044446;28;20723;-63
2022/07/16 06:56:27;;;;;;;0.43;0.40;;;20.40;68.70;;;;;;5044312;28;20056;-68
2022/07/16 06:58:53;;;;;;;1.27;0.60;;;20.40;68.40;;;;;;5044045;28;20345;-63
2022/07/16 07:01:18;;;;;;;0.32;0.32;;;20.40;68.10;;;;;;5046989;28;20099;-63
2022/07/16 07:03:44;;;;;;;0.98;0.47;;;20.50;67.90;;;;;;5045699;28;20095;-64
2022/07/16 07:06:10;;;;;;;4.25;0.73;;;20.60;67.50;;;;;;5056550;28;20029;-62
2022/07/16 07:08:35;;;;;;;0.40;0.38;;;20.70;66.90;;;;;;5053099;28;20048;-61
2022/07/16 07:11:01;;;;;;;0.30;0.30;;;20.70;66.40;;;;;;5052586;28;20040;-64
2022/07/16 07:13:29;;;;;;;2.50;0.50;;;20.80;65.80;;;;;;5050680;28;20025;-63
2022/07/16 07:15:55;;;;;;;0.95;0.50;;;20.90;65.30;;;;;;5046827;28;20434;-64
2022/07/16 07:18:20;;;;;;;2.50;0.68;;;20.90;64.70;;;;;;5044098;28;20029;-67
2022/07/16 07:20:46;;;;;;;0.70;0.40;;;20.90;64.10;;;;;;5043973;28;20032;-64
2022/07/16 07:23:12;;;;;;;0.22;0.22;;;20.90;63.90;;;;;;5047066;28;20397;-63
2022/07/16 07:25:38;;;;;;;0.38;0.38;;;20.90;63.30;;;;;;5053562;28;20059;-67
2022/07/16 07:28:04;;;;;;;0.30;0.30;;;20.90;62.80;;;;;;5057947;28;20056;-63
2022/07/16 07:30:29;;;;;;;0.40;0.30;;;20.90;62.50;;;;;;5062510;28;20368;-63
2022/07/16 07:32:55;;;;;;;0.50;0.50;;;20.90;62.90;;;;;;5060986;28;20032;-64
2022/07/16 07:35:21;;;;;;;0.65;0.57;;;21.00;62.30;;;;;;5063457;28;20036;-63
2022/07/16 07:37:47;;;;;;;0.30;0.30;;;21.00;61.90;;;;;;5060778;28;20066;-67
2022/07/16 07:40:13;;;;;;;0.95;0.35;;;21.10;61.30;;;;;;5046663;28;20041;-64
2022/07/16 07:42:39;;;;;;;1.35;0.70;;;21.10;61.30;;;;;;5051144;28;20076;-63
2022/07/16 07:45:05;;;;;;;0.50;0.30;;;21.20;61.10;;;;;;5064037;28;20467;-64
2022/07/16 07:47:31;;;;;;;0.50;0.50;;;21.30;60.70;;;;;;5056044;28;20042;-63
2022/07/16 07:49:58;;;;;;;0.28;0.28;;;21.30;59.10;;;;;;5055762;28;20127;-63
2022/07/16 07:52:23;;;;;;;0.40;0.40;;;21.30;57.90;;;;;;5053460;28;20009;-63
2022/07/16 07:54:49;;;;;;;0.80;0.40;;;21.20;58.20;;;;;;5059406;28;20111;-63
2022/07/16 07:57:14;;;;;;;0.40;0.40;;;21.20;58.20;;;;;;5053323;28;20041;-67
2022/07/16 07:59:40;;;;;;;0.85;0.22;;;21.20;57.90;;;;;;5068668;28;20108;-67
2022/07/16 08:02:06;;;;;;;2.03;0.68;;;21.20;58.00;;;;;;5059864;28;20053;-63
2022/07/16 08:04:33;;;;;;;1.50;0.32;;;21.30;57.90;;;;;;5053471;28;20040;-63
2022/07/16 08:06:59;;;;;;;0.38;0.38;;;21.40;58.10;;;;;;5062657;28;20055;-63
2022/07/16 08:09:25;;;;;;;0.32;0.32;;;21.50;57.80;;;;;;5052643;28;20037;-64
2022/07/16 08:11:51;;;;;;;0.45;0.45;;;21.70;57.20;;;;;;5046305;28;20044;-63
2022/07/16 08:14:16;;;;;;;0.65;0.22;;;21.80;56.20;;;;;;5040154;28;20361;-64
2022/07/16 08:16:42;;;;;;;0.40;0.40;;;21.70;56.00;;;;;;5044576;28;20036;-63
2022/07/16 08:19:08;;;;;;;0.40;0.40;;;21.60;56.20;;;;;;5049002;28;20428;-63
2022/07/16 08:21:34;;;;;;;0.82;0.40;;;21.60;56.00;;;;;;5062841;28;20043;-67
2022/07/16 08:26:45;;;;;;;1.15;0.68;;;21.80;54.90;;;;;;5058508;28;20384;-63
2022/07/16 08:29:10;;;;;;;0.40;0.40;;;22.00;55.00;;;;;;5058701;28;20036;-64
2022/07/16 08:31:36;;;;;;;1.52;0.82;;;22.20;55.10;;;;;;5062202;28;20025;-64
2022/07/16 08:34:02;;;;;;;0.57;0.38;;;22.30;54.80;;;;;;5062299;28;20047;-64
2022/07/16 08:36:28;;;;;;;2.20;0.90;;;22.40;54.10;;;;;;5057268;28;20753;-63
2022/07/16 08:38:54;;;;;;;0.32;0.30;;;22.40;54.00;;;;;;5060401;28;20452;-63
2022/07/16 08:41:20;;;;;;;0.30;0.30;;;22.50;53.80;;;;;;5065063;28;20384;-62
2022/07/16 08:43:46;;;;;;;1.00;0.70;;;22.50;53.60;;;;;;5051263;28;20032;-62
2022/07/16 08:46:13;;;;;;;0.43;0.40;;;22.50;53.10;;;;;;5044671;28;20041;-64
2022/07/16 08:48:39;;;;;;;0.38;0.35;;;22.40;52.80;;;;;;5052185;28;20471;-65
2022/07/16 08:51:08;;;;;;;1.90;0.60;;;22.40;53.20;;;;;;5059078;28;20032;-68
2022/07/16 08:53:34;;;;;;;0.68;0.45;;;22.30;53.20;;;;;;5038857;28;20048;-68
2022/07/16 08:56:01;;;;;;;0.77;0.45;;;22.30;53.40;;;;;;5045488;28;20029;-68
2022/07/16 08:58:31;;;;;;;0.20;0.20;;;22.50;53.40;;;;;;5044511;28;20499;-68
2022/07/16 09:00:57;;;;;;;0.20;0.20;;;22.50;52.30;;;;;;5046036;28;20025;-64
2022/07/16 09:03:23;;;;;;;2.50;0.60;;;22.50;51.90;;;;;;5076312;28;20016;-67
2022/07/16 09:05:50;;;;;;;1.85;0.55;;;22.50;51.70;;;;;;5054880;28;20020;-64
2022/07/16 09:08:19;;;;;;;0.30;0.30;;;22.40;51.30;;;;;;5043216;28;20033;-68
2022/07/16 09:10:46;;;;;;;0.50;0.28;;;22.30;51.50;;;;;;5065214;28;20043;-63
2022/07/16 09:13:12;;;;;;;0.30;0.30;;;22.30;51.70;;;;;;5058860;28;20025;-64
2022/07/16 09:15:40;;;;;;;1.23;0.38;;;22.50;51.90;;;;;;5046813;28;20487;-63
2022/07/16 09:18:07;;;;;;;1.30;0.63;;;22.60;51.40;;;;;;5050784;28;20480;-67
2022/07/16 09:20:33;;;;;;;0.40;0.22;;;22.70;51.10;;;;;;5066923;28;20109;-67
2022/07/16 09:22:59;;;;;;;0.30;0.30;;;22.60;50.90;;;;;;5055314;28;20028;-64
2022/07/16 09:25:25;;;;;;;0.60;0.40;;;22.50;51.20;;;;;;5048923;28;20492;-67
2022/07/16 09:28:00;;;;;;;1.08;0.30;;;22.60;51.30;;;;;;5054511;28;20098;-68
2022/07/16 09:30:27;;;;;;;0.40;0.35;;;22.80;50.80;;;;;;5054066;28;20039;-65
2022/07/16 09:32:54;;;;;;;0.52;0.52;;;22.80;49.60;;;;;;5051118;28;20030;-68
2022/07/16 09:35:21;;;;;;;0.32;0.20;;;22.80;49.50;;;;;;5047750;28;20033;-68
2022/07/16 09:37:48;;;;;;;0.35;0.32;;;22.90;48.50;;;;;;5060610;28;20037;-64
2022/07/16 09:40:15;;;;;;;6.25;0.65;;;23.00;48.20;;;;;;5051977;28;20123;-64
2022/07/16 09:42:41;;;;;;;1.02;0.20;;;23.20;48.10;;;;;;5047771;28;20044;-64
2022/07/16 09:45:18;;;;;;;0.40;0.40;;;23.40;47.60;;;;;;5051486;28;20093;-68
2022/07/16 09:47:44;;;;;;;0.40;0.40;;;23.30;47.50;;;;;;5040241;28;20036;-69
2022/07/16 09:50:09;;;;;;;1.45;0.75;;;23.10;47.70;;;;;;5044868;28;20480;-68
2022/07/16 09:52:35;;;;;;;0.75;0.45;;;23.10;47.70;;;;;;5050679;28;20044;-68
2022/07/16 09:55:02;;;;;;;0.30;0.30;;;23.20;47.60;;;;;;5060305;28;20029;-68
2022/07/16 09:57:29;;;;;;;0.20;0.20;;;23.40;47.60;;;;;;5068921;28;20028;-65
2022/07/16 09:59:57;;;;;;;0.20;0.20;;;23.70;46.90;;;;;;5069287;28;20032;-67
2022/07/16 10:02:23;;;;;;;0.70;0.22;;;23.90;46.30;;;;;;5052213;28;20423;-67
2022/07/16 10:04:50;;;;;;;0.50;0.30;;;23.90;45.50;;;;;;5059306;28;20029;-67
2022/07/16 10:07:19;;;;;;;0.30;0.30;;;23.60;45.50;;;;;;5058691;28;20142;-67
2022/07/16 10:09:46;;;;;;;1.67;0.70;;;23.40;46.10;;;;;;5068911;28;20067;-67
2022/07/16 10:12:18;;;;;;;0.55;0.30;;;23.40;46.20;;;;;;5068581;28;20037;-68
2022/07/16 10:14:54;;;;;;;2.72;0.55;;;23.60;45.80;;;;;;5069259;28;20027;-67
2022/07/16 10:17:32;;;;;;;0.57;0.30;;;23.90;45.80;;;;;;5057102;28;20048;-67
2022/07/16 10:20:22;;;;;;;0.32;0.20;;;24.20;45.40;;;;;;5071560;28;20039;-64
2022/07/16 10:22:51;;;;;;;2.35;1.05;;;24.30;45.20;;;;;;5072381;28;20027;-64
2022/07/16 10:25:27;;;;;;;0.20;0.20;;;24.30;44.90;;;;;;5066449;28;20031;-64
2022/07/16 10:27:54;;;;;;;0.20;0.20;;;24.20;45.10;;;;;;5070597;28;20040;-64
2022/07/16 10:30:24;;;;;;;1.55;0.40;;;24.10;45.60;;;;;;5048306;28;20025;-64
2022/07/16 10:33:14;;;;;;;0.45;0.45;;;24.20;45.30;;;;;;5065838;28;20131;-64
2022/07/16 10:35:47;;;;;;;0.60;0.50;;;24.40;45.00;;;;;;5047183;28;20047;-64
2022/07/16 10:38:15;;;;;;;0.22;0.22;;;24.70;43.90;;;;;;5061599;28;20107;-65
2022/07/16 10:40:42;;;;;;;0.30;0.30;;;24.90;43.20;;;;;;5060575;28;20337;-64
2022/07/16 10:43:16;;;;;;;0.50;0.50;;;25.00;43.00;;;;;;5052597;28;20497;-68
2022/07/16 10:45:54;;;;;;;0.30;0.30;;;25.10;43.10;;;;;;5056562;28;20354;-68
2022/07/16 10:48:21;;;;;;;1.15;0.30;;;25.20;43.00;;;;;;5051192;28;20407;-64
2022/07/16 10:51:23;;;;;;;0.30;0.20;;;25.40;43.00;;;;;;5051214;28;20029;-64
2022/07/16 10:53:58;;;;;;;0.35;0.35;;;25.60;43.00;;;;;;5008831;28;20033;-64
2022/07/16 10:56:44;;;;;;;0.22;0.22;;;25.40;41.60;;;;;;5047066;28;20029;-64
2022/07/16 10:59:13;;;;;;;0.52;0.52;;;25.20;42.10;;;;;;5050212;28;20029;-64
2022/07/16 11:01:41;;;;;;;0.38;0.38;;;25.20;42.20;;;;;;5070031;28;20115;-64
2022/07/16 11:04:09;;;;;;;0.22;0.20;;;25.30;42.20;;;;;;5065520;28;20020;-64
2022/07/16 11:06:35;;;;;;;0.43;0.40;;;25.50;42.10;;;;;;5064531;28;20465;-63
2022/07/16 11:09:04;;;;;;;0.30;0.30;;;25.70;41.90;;;;;;5071030;28;20021;-64
2022/07/16 11:11:34;;;;;;;0.20;0.20;;;26.00;40.70;;;;;;5072049;28;20063;-64
2022/07/16 11:14:01;;;;;;;0.45;0.45;;;26.00;40.40;;;;;;5068697;28;20471;-64
2022/07/16 11:16:27;;;;;;;0.20;0.20;;;25.80;40.30;;;;;;5060645;28;20407;-64
2022/07/16 11:18:53;;;;;;;0.43;0.40;;;25.60;40.70;;;;;;5070562;28;20086;-64
2022/07/16 11:21:19;;;;;;;0.45;0.40;;;25.60;40.80;;;;;;5020804;28;20032;-68
2022/07/16 11:23:52;;;;;;;0.40;0.40;;;25.60;41.10;;;;;;5046777;28;20445;-64
2022/07/16 11:26:19;;;;;;;0.40;0.40;;;25.80;41.50;;;;;;5042776;28;20045;-64
2022/07/16 11:29:02;;;;;;;3.33;0.80;;;26.10;41.10;;;;;;5036127;28;20059;-65
2022/07/16 11:31:33;;;;;;;0.50;0.35;;;26.30;39.70;;;;;;5049844;28;20449;-64
2022/07/16 11:34:05;;;;;;;0.47;0.47;;;26.50;39.40;;;;;;5046246;28;20020;-65
2022/07/16 11:36:39;;;;;;;0.38;0.20;;;26.60;39.20;;;;;;5043363;28;20424;-68
2022/07/16 11:39:07;;;;;;;0.30;0.30;;;26.70;39.50;;;;;;5037219;28;20512;-68
2022/07/16 11:41:34;;;;;;;0.30;0.30;;;26.70;39.50;;;;;;5041193;28;20037;-65
2022/07/16 11:44:12;;;;;;;0.50;0.50;;;26.40;39.70;;;;;;5035047;28;20021;-68
2022/07/16 11:46:52;;;;;;;1.83;0.45;;;26.40;39.80;;;;;;5049304;28;20557;-68
2022/07/16 11:49:39;;;;;;;0.90;0.30;;;26.60;40.10;;;;;;5043834;28;20048;-65
2022/07/16 11:52:08;;;;;;;0.30;0.30;;;26.80;39.60;;;;;;5045766;28;20535;-65
2022/07/16 11:54:38;;;;;;;0.30;0.30;;;27.00;38.50;;;;;;5052425;28;20457;-64
2022/07/16 11:57:07;;;;;;;0.77;0.40;;;27.00;38.70;;;;;;5046462;28;20029;-68
2022/07/16 11:59:33;;;;;;;0.45;0.43;;;27.00;38.50;;;;;;5044056;28;20037;-68
2022/07/16 12:01:58;;;;;;;0.30;0.30;;;26.80;38.50;;;;;;5044202;28;20537;-68
2022/07/16 12:04:34;;;;;;;0.52;0.40;;;26.80;38.50;;;;;;5051527;28;20111;-65
2022/07/16 12:07:01;;;;;;;0.20;0.20;;;26.90;37.50;;;;;;5053628;28;20036;-65
2022/07/16 12:09:38;;;;;;;0.40;0.40;;;26.90;37.20;;;;;;5045435;28;20120;-68
2022/07/16 12:12:07;;;;;;;0.30;0.30;;;26.80;37.10;;;;;;5043704;28;20032;-68
2022/07/16 12:15:06;;;;;;;0.52;0.52;;;26.80;37.60;;;;;;5041484;28;20032;-65
2022/07/16 12:17:40;;;;;;;0.20;0.20;;;27.00;38.50;;;;;;5063072;28;20571;-65
2022/07/16 12:20:19;;;;;;;0.70;0.70;;;27.10;37.80;;;;;;5039522;28;20103;-65
2022/07/16 12:22:49;;;;;;;0.98;0.52;;;27.30;37.60;;;;;;5041776;28;20142;-65
2022/07/16 12:25:27;;;;;;;0.55;0.55;;;27.50;37.50;;;;;;5040674;28;20318;-65
2022/07/16 12:28:22;;;;;;;0.30;0.30;;;27.50;36.40;;;;;;5052547;28;20040;-65
2022/07/16 12:30:59;;;;;;;0.30;0.30;;;27.50;35.10;;;;;;5048029;28;20112;-68
2022/07/16 12:33:27;;;;;;;0.40;0.40;;;27.20;35.70;;;;;;5042043;28;20029;-65
2022/07/16 12:36:09;;;;;;;0.30;0.30;;;26.90;36.50;;;;;;5043065;28;20472;-65
2022/07/16 12:38:52;;;;;;;0.40;0.40;;;26.80;37.10;;;;;;5044853;28;20127;-65
2022/07/16 12:41:23;;;;;;;0.30;0.30;;;27.00;36.50;;;;;;5038712;28;20044;-65
2022/07/16 12:43:54;;;;;;;0.40;0.40;;;27.10;36.50;;;;;;5046286;28;20024;-65
2022/07/16 12:46:22;;;;;;;0.93;0.40;;;27.40;36.70;;;;;;5036023;28;20825;-65
2022/07/16 12:48:54;;;;;;;0.30;0.30;;;27.60;36.10;;;;;;5041079;28;20055;-67
2022/07/16 12:51:21;;;;;;;0.32;0.32;;;27.90;36.30;;;;;;5041622;28;20048;-67
2022/07/16 12:53:49;;;;;;;0.43;0.38;;;28.10;36.30;;;;;;5041621;28;20048;-67
2022/07/16 12:59:00;;;;;;;0.68;0.50;;;28.00;35.70;;;;;;5038333;28;20040;-67